Startpagina
METAR-TAF:

METAR-TAF

Vliegvelden :

Anchorage, Alaska, Verenigde Staten

breedte: 61-13N, lengte: 149-51W, hoogte: 42 m

Actueel weer

Dit bericht is 21 minuten geleden gemaakt, om 18:13 UTC
Wind 3 kt uit het noorden
Temperatuur 2°C
Vochtigheid 93%
Druk 1004 hPa
Zicht: 16.1 km
Gebroken wolken op 400 ft
Geheel bewolkt op 8500 ft

METAR: PAMR 121813Z 01003KT 10SM BKN004 OVC085 02/01 A2964 RMK AO2 T00220011

Tijdstip: 09:34 (18:34 UTC)


TAF: ontbreekt

Waarnemingen en weersverwachtingen van meer dan 4000 vliegvelden (METAR en TAF).

De beschikbare stations zijn de gele en rode punten op de kaart.

Ga met uw muis naar het station om de naam te zien.

Klik dan om waarnemingen en weersverwachtingen te zien.

kaart wijzigen: klik op de groene knoppen met een zwart kruis om in te zoomen, op de groene knop met een streepje om uit te zoomen of op de groene pijlen voor aangrenzende kaarten.


METAR-TAF: